Osawatomie, Kansas
Current Conditions -  °F | °C
As of 9:53 AM on Wednesday 28 Jan 2015 (Local Time) from KIXD Reporting Station
Clear Clear  
Wind Chill: 53°   Ceiling: Unl
Heat Index: 53°   Visibility: 10mi
Dew Point: 36°   Wind: 13mph
Humidity: 52%   Direction: 170°S
Pressure: 29.93"   Gusts: NA
Location:  38.5°N, 94.95°W
Report Text: KIXD 281553Z 17011KT 10SM CLR 12/02 A2993 RMK AO2 SLP135 T01170022
Loading
Personal Weather Stations






























Interactive Weather Map New forecast layout! Learn more

10-Day Weather Forecast

Advertisements
Track Severe Weather on mobile